TimeEDT,TemperatureF,Dew PointF,Humidity,Sea Level PressureIn,VisibilityMPH,Wind Direction,Wind SpeedMPH,Gust SpeedMPH,PrecipitationIn,Events,Conditions,WindDirDegrees,DateUTC
12:51 AM,60.1,55.9,86,30.05,10.0,Calm,Calm,-,N/A,,Scattered Clouds,0,2013-09-30 04:51:00
1:51 AM,57.9,55.0,90,30.05,8.0,Calm,Calm,-,N/A,,Mostly Cloudy,0,2013-09-30 05:51:00
2:51 AM,57.0,54.0,89,30.04,8.0,Calm,Calm,-,N/A,,Scattered Clouds,0,2013-09-30 06:51:00
3:51 AM,55.9,54.0,93,30.04,8.0,Calm,Calm,-,N/A,,Scattered Clouds,0,2013-09-30 07:51:00
4:51 AM,57.0,53.1,87,30.04,10.0,Calm,Calm,-,N/A,,Mostly Cloudy,0,2013-09-30 08:51:00
5:51 AM,55.9,53.1,90,30.05,8.0,Calm,Calm,-,N/A,,Overcast,0,2013-09-30 09:51:00
6:51 AM,57.0,54.0,89,30.06,8.0,Calm,Calm,-,N/A,,Mostly Cloudy,0,2013-09-30 10:51:00
7:51 AM,57.0,54.0,89,30.06,7.0,Calm,Calm,-,N/A,,Mostly Cloudy,0,2013-09-30 11:51:00
8:51 AM,59.0,55.0,87,30.08,7.0,Calm,Calm,-,N/A,,Overcast,0,2013-09-30 12:51:00
9:51 AM,62.1,57.9,86,30.08,7.0,Calm,Calm,-,N/A,,Overcast,0,2013-09-30 13:51:00
10:51 AM,64.9,59.0,81,30.07,10.0,Calm,Calm,-,N/A,,Mostly Cloudy,0,2013-09-30 14:51:00
11:31 AM,68.0,57.2,68,30.06,9.0,Variable,3.5,-,N/A,,Overcast,0,2013-09-30 15:31:00
11:51 AM,68.0,55.0,63,30.06,10.0,Variable,3.5,-,N/A,,Overcast,0,2013-09-30 15:51:00
12:37 PM,69.8,57.2,64,30.04,10.0,South,5.8,-,N/A,,Mostly Cloudy,190,2013-09-30 16:37:00
12:51 PM,70.0,55.9,61,30.05,10.0,WSW,6.9,-,N/A,,Mostly Cloudy,250,2013-09-30 16:51:00
1:42 PM,69.8,55.4,60,30.04,10.0,SW,10.4,-,N/A,,Overcast,230,2013-09-30 17:42:00
1:51 PM,70.0,55.9,61,30.04,10.0,WSW,8.1,-,N/A,,Overcast,240,2013-09-30 17:51:00
2:51 PM,69.1,55.9,63,30.03,10.0,SSW,4.6,-,N/A,,Overcast,210,2013-09-30 18:51:00
3:41 PM,69.8,57.2,64,30.01,10.0,SSW,10.4,-,N/A,,Overcast,200,2013-09-30 19:41:00
3:51 PM,69.1,57.0,65,30.02,10.0,SW,5.8,-,N/A,,Overcast,220,2013-09-30 19:51:00
4:11 PM,69.8,57.2,64,30.00,10.0,WSW,5.8,-,N/A,,Overcast,240,2013-09-30 20:11:00
4:51 PM,68.0,57.9,70,30.02,10.0,West,9.2,-,N/A,,Overcast,260,2013-09-30 20:51:00
5:51 PM,66.9,57.0,70,30.03,10.0,WSW,5.8,-,N/A,,Overcast,250,2013-09-30 21:51:00
6:51 PM,64.9,55.9,73,30.03,10.0,WSW,3.5,-,N/A,,Overcast,250,2013-09-30 22:51:00
7:51 PM,64.9,55.9,73,30.04,10.0,SW,3.5,-,N/A,,Overcast,220,2013-09-30 23:51:00
8:51 PM,64.0,55.9,75,30.05,10.0,Calm,Calm,-,N/A,,Overcast,0,2013-10-01 00:51:00
9:51 PM,64.0,55.9,75,30.04,10.0,SSW,4.6,-,N/A,,Overcast,210,2013-10-01 01:51:00
10:51 PM,63.0,57.0,81,30.04,10.0,South,3.5,-,N/A,,Overcast,190,2013-10-01 02:51:00
11:51 PM,62.1,57.0,84,30.05,10.0,Calm,Calm,-,N/A,,Mostly Cloudy,0,2013-10-01 03:51:00